Time;durP1;ratioP1;P1;durP2;ratioP2;P2;SDS_P1;SDS_P2;PMS_P1;PMS_P2;Temp;Humidity;BMP_temperature;BMP_pressure;BME280_temperature;BME280_humidity;BME280_pressure;Samples;Min_cycle;Max_cycle;Signal;HPM_P1;HPM_P2
2021/09/06 00:00:02;;;;;;;;;15.50;14.00;;;;;;;;5066006;28;8869;-78
2021/09/06 00:02:29;;;;;;;;;18.50;17.00;;;;;;;;5072648;28;8849;-80
2021/09/06 00:04:58;;;;;;;;;13.50;13.50;;;;;;;;5072806;28;8856;-81
2021/09/06 00:07:25;;;;;;;;;17.25;16.25;;;;;;;;5063417;28;8864;-82
2021/09/06 00:09:58;;;;;;;;;19.75;14.00;;;;;;;;5063551;28;8975;-81
2021/09/06 00:12:26;;;;;;;;;17.00;15.50;;;;;;;;5067031;28;8915;-81
2021/09/06 00:14:53;;;;;;;;;21.50;18.50;;;;;;;;5067564;28;8860;-81
2021/09/06 00:17:21;;;;;;;;;16.75;16.25;;;;;;;;5067660;28;8861;-80
2021/09/06 00:19:48;;;;;;;;;16.00;16.00;;;;;;;;5070650;28;8877;-82
2021/09/06 00:22:17;;;;;;;;;16.25;16.25;;;;;;;;5072037;28;8865;-82
2021/09/06 00:24:44;;;;;;;;;15.50;15.50;;;;;;;;5073866;28;8909;-83
2021/09/06 00:27:11;;;;;;;;;14.00;14.00;;;;;;;;5065725;28;8870;-82
2021/09/06 00:29:39;;;;;;;;;18.00;13.25;;;;;;;;5068633;28;8906;-82
2021/09/06 00:32:06;;;;;;;;;11.50;10.50;;;;;;;;5068430;28;8829;-81
2021/09/06 00:34:34;;;;;;;;;16.50;16.50;;;;;;;;5075176;28;8860;-79
2021/09/06 00:37:01;;;;;;;;;17.25;15.75;;;;;;;;5083343;28;8880;-83
2021/09/06 00:39:30;;;;;;;;;21.00;18.00;;;;;;;;5067423;28;9660;-83
2021/09/06 00:41:58;;;;;;;;;18.25;18.00;;;;;;;;5067328;28;8901;-83
2021/09/06 00:44:25;;;;;;;;;18.75;17.25;;;;;;;;5064097;28;9390;-81
2021/09/06 00:46:52;;;;;;;;;14.75;14.75;;;;;;;;5069020;28;8939;-82
2021/09/06 00:49:19;;;;;;;;;15.50;15.50;;;;;;;;5063731;28;8945;-81
2021/09/06 00:51:47;;;;;;;;;19.75;17.00;;;;;;;;5066863;28;8876;-80
2021/09/06 00:54:14;;;;;;;;;17.00;17.00;;;;;;;;5070601;28;9645;-82
2021/09/06 00:56:44;;;;;;;;;22.00;18.25;;;;;;;;5081703;28;8870;-81
2021/09/06 00:59:12;;;;;;;;;17.75;15.75;;;;;;;;5077433;28;8897;-80
2021/09/06 01:01:39;;;;;;;;;14.00;14.00;;;;;;;;5067429;28;8936;-83
2021/09/06 01:04:06;;;;;;;;;16.75;16.00;;;;;;;;5051111;28;8864;-81
2021/09/06 01:06:33;;;;;;;;;20.25;17.50;;;;;;;;5066818;28;8849;-82
2021/09/06 01:09:01;;;;;;;;;19.25;17.50;;;;;;;;5072742;28;8894;-83
2021/09/06 01:11:28;;;;;;;;;15.25;14.50;;;;;;;;5050728;28;8968;-82
2021/09/06 01:13:57;;;;;;;;;17.75;16.50;;;;;;;;5072373;28;8970;-81
2021/09/06 01:16:25;;;;;;;;;15.00;15.00;;;;;;;;5053462;28;8892;-82
2021/09/06 01:18:52;;;;;;;;;18.25;16.75;;;;;;;;5068058;28;9432;-81
2021/09/06 01:21:20;;;;;;;;;12.50;12.50;;;;;;;;5080146;28;9501;-81
2021/09/06 01:23:47;;;;;;;;;17.00;14.75;;;;;;;;5068411;28;8864;-81
2021/09/06 01:26:15;;;;;;;;;27.75;18.25;;;;;;;;5062319;28;8879;-81
2021/09/06 01:28:43;;;;;;;;;16.00;15.50;;;;;;;;5064940;28;8905;-83
2021/09/06 01:31:10;;;;;;;;;17.25;17.25;;;;;;;;5076888;28;8972;-82
2021/09/06 01:33:37;;;;;;;;;16.50;15.25;;;;;;;;5073251;28;8863;-82
2021/09/06 01:36:05;;;;;;;;;16.00;15.75;;;;;;;;5071657;28;8862;-83
2021/09/06 01:38:34;;;;;;;;;9.75;9.50;;;;;;;;5081731;28;8962;-81
2021/09/06 01:41:01;;;;;;;;;13.75;13.75;;;;;;;;5073459;28;8861;-83
2021/09/06 01:43:30;;;;;;;;;15.25;15.25;;;;;;;;5070202;28;8894;-82
2021/09/06 01:45:57;;;;;;;;;18.00;16.50;;;;;;;;5073798;28;9034;-82
2021/09/06 01:48:24;;;;;;;;;17.00;17.00;;;;;;;;5082625;28;8889;-84
2021/09/06 01:50:51;;;;;;;;;17.75;17.75;;;;;;;;5068092;28;8988;-80
2021/09/06 01:53:19;;;;;;;;;19.25;17.75;;;;;;;;5066467;28;8865;-81
2021/09/06 01:55:46;;;;;;;;;18.50;15.25;;;;;;;;5072448;28;8879;-81
2021/09/06 01:58:13;;;;;;;;;18.75;17.00;;;;;;;;5067233;28;8849;-82
2021/09/06 02:00:42;;;;;;;;;18.00;17.00;;;;;;;;5078029;28;8905;-81
2021/09/06 02:03:09;;;;;;;;;21.50;19.75;;;;;;;;5071921;28;8876;-81
2021/09/06 02:05:37;;;;;;;;;19.00;19.00;;;;;;;;5065465;28;8903;-82
2021/09/06 02:08:04;;;;;;;;;19.75;18.75;;;;;;;;5086686;28;8933;-83
2021/09/06 02:10:32;;;;;;;;;18.00;16.75;;;;;;;;5086021;28;8881;-83
2021/09/06 02:12:59;;;;;;;;;17.00;15.50;;;;;;;;5074992;28;8899;-79
2021/09/06 02:15:26;;;;;;;;;17.25;15.50;;;;;;;;5066674;28;8913;-80
2021/09/06 02:17:55;;;;;;;;;18.50;16.00;;;;;;;;5072303;28;9768;-82
2021/09/06 02:20:22;;;;;;;;;16.25;16.25;;;;;;;;5073416;28;8864;-82
2021/09/06 02:22:49;;;;;;;;;20.50;17.75;;;;;;;;5083039;28;8901;-83
2021/09/06 02:25:17;;;;;;;;;16.75;14.00;;;;;;;;5086890;28;8881;-81
2021/09/06 02:27:44;;;;;;;;;23.50;20.50;;;;;;;;5054849;28;8905;-81
2021/09/06 02:30:12;;;;;;;;;19.50;19.50;;;;;;;;5077055;28;8933;-79
2021/09/06 02:32:39;;;;;;;;;19.00;19.00;;;;;;;;5073575;28;8875;-81
2021/09/06 02:35:09;;;;;;;;;23.75;21.75;;;;;;;;5082128;28;8888;-81
2021/09/06 02:37:37;;;;;;;;;16.75;15.75;;;;;;;;5077473;28;8857;-81
2021/09/06 02:40:05;;;;;;;;;18.25;18.25;;;;;;;;5078295;28;8870;-81
2021/09/06 02:42:32;;;;;;;;;20.00;17.50;;;;;;;;5062097;28;8886;-81
2021/09/06 02:44:59;;;;;;;;;19.00;18.75;;;;;;;;5065975;28;8871;-80
2021/09/06 02:47:29;;;;;;;;;17.25;17.25;;;;;;;;5073597;28;8892;-81
2021/09/06 02:49:58;;;;;;;;;15.00;12.50;;;;;;;;5060085;28;8992;-82
2021/09/06 02:52:27;;;;;;;;;23.25;21.25;;;;;;;;5067487;28;9013;-80
2021/09/06 02:54:54;;;;;;;;;22.75;20.50;;;;;;;;5069788;28;8883;-83
2021/09/06 02:57:21;;;;;;;;;19.00;19.00;;;;;;;;5070280;28;9610;-82
2021/09/06 02:59:49;;;;;;;;;18.75;18.00;;;;;;;;5051740;28;8881;-82
2021/09/06 03:02:16;;;;;;;;;18.25;15.75;;;;;;;;5075409;28;8812;-79
2021/09/06 03:04:43;;;;;;;;;18.50;16.50;;;;;;;;5068033;28;8937;-83
2021/09/06 03:07:11;;;;;;;;;17.00;14.00;;;;;;;;5076618;28;8862;-84
2021/09/06 03:09:39;;;;;;;;;13.00;13.00;;;;;;;;5061057;28;8883;-81
2021/09/06 03:12:07;;;;;;;;;17.50;14.25;;;;;;;;5069867;28;8970;-82
2021/09/06 03:14:34;;;;;;;;;15.50;15.50;;;;;;;;5072307;28;9005;-82
2021/09/06 03:17:02;;;;;;;;;19.00;19.00;;;;;;;;5074147;28;8965;-82
2021/09/06 03:19:29;;;;;;;;;18.75;15.25;;;;;;;;5076905;28;8861;-80
2021/09/06 03:21:56;;;;;;;;;19.00;19.00;;;;;;;;5059802;28;8884;-82
2021/09/06 03:24:24;;;;;;;;;18.75;17.00;;;;;;;;5082177;28;8889;-82
2021/09/06 03:26:53;;;;;;;;;19.50;18.00;;;;;;;;5064903;28;8860;-81
2021/09/06 03:29:20;;;;;;;;;17.50;17.50;;;;;;;;5065978;28;8845;-81
2021/09/06 03:31:48;;;;;;;;;17.75;16.75;;;;;;;;5076160;28;8827;-82
2021/09/06 03:34:15;;;;;;;;;18.00;16.75;;;;;;;;5062360;28;8875;-81
2021/09/06 03:36:42;;;;;;;;;17.00;17.00;;;;;;;;5070156;28;8868;-80
2021/09/06 03:39:10;;;;;;;;;18.25;16.75;;;;;;;;5081304;28;8920;-83
2021/09/06 03:41:37;;;;;;;;;20.50;18.25;;;;;;;;5066064;28;9022;-81
2021/09/06 03:44:06;;;;;;;;;18.75;18.75;;;;;;;;5068079;28;8874;-81
2021/09/06 03:46:33;;;;;;;;;19.75;19.25;;;;;;;;5064252;28;8996;-81
2021/09/06 03:49:00;;;;;;;;;18.50;17.00;;;;;;;;5072771;28;8899;-80
2021/09/06 03:51:27;;;;;;;;;18.00;17.00;;;;;;;;5074634;28;8877;-82
2021/09/06 03:53:55;;;;;;;;;24.25;20.75;;;;;;;;5072627;28;8871;-81
2021/09/06 03:56:22;;;;;;;;;18.25;16.25;;;;;;;;5063877;28;8964;-81
2021/09/06 03:58:49;;;;;;;;;14.00;14.00;;;;;;;;5064694;28;8879;-79
2021/09/06 04:01:20;;;;;;;;;18.75;17.25;;;;;;;;5073406;28;8828;-81
2021/09/06 04:03:47;;;;;;;;;23.25;20.00;;;;;;;;5067902;28;8880;-80
2021/09/06 04:06:15;;;;;;;;;17.50;16.25;;;;;;;;5070260;28;8869;-81
2021/09/06 04:08:42;;;;;;;;;16.75;16.75;;;;;;;;5081743;28;8869;-81
2021/09/06 04:11:10;;;;;;;;;18.75;16.25;;;;;;;;5064639;28;8899;-81
2021/09/06 04:13:37;;;;;;;;;19.25;19.25;;;;;;;;5067341;28;8883;-84
2021/09/06 04:16:05;;;;;;;;;19.00;16.50;;;;;;;;5064408;28;8876;-80
2021/09/06 04:18:34;;;;;;;;;19.75;18.00;;;;;;;;5066004;28;8879;-82
2021/09/06 04:21:02;;;;;;;;;15.75;15.75;;;;;;;;5073831;28;9606;-81
2021/09/06 04:23:29;;;;;;;;;20.75;17.00;;;;;;;;5070469;28;8981;-80
2021/09/06 04:25:56;;;;;;;;;17.50;16.00;;;;;;;;5065990;28;8850;-79
2021/09/06 04:28:23;;;;;;;;;18.50;16.50;;;;;;;;5077510;28;8962;-81
2021/09/06 04:30:51;;;;;;;;;18.25;17.25;;;;;;;;5064586;28;8844;-80
2021/09/06 04:33:18;;;;;;;;;16.00;16.00;;;;;;;;5083565;28;8915;-82
2021/09/06 04:35:46;;;;;;;;;17.50;17.50;;;;;;;;5083491;28;8899;-82
2021/09/06 04:38:14;;;;;;;;;19.75;16.50;;;;;;;;5062421;28;8879;-82
2021/09/06 04:40:41;;;;;;;;;11.50;11.50;;;;;;;;5065328;28;8885;-80
2021/09/06 04:43:08;;;;;;;;;19.25;19.25;;;;;;;;5074799;28;8852;-81
2021/09/06 04:45:35;;;;;;;;;15.00;11.67;;;;;;;;5060413;28;8902;-86
2021/09/06 04:48:03;;;;;;;;;21.50;16.75;;;;;;;;5067014;28;9018;-80
2021/09/06 04:50:30;;;;;;;;;16.50;15.50;;;;;;;;5073209;28;8894;-81
2021/09/06 04:52:59;;;;;;;;;20.25;15.00;;;;;;;;5065813;28;8937;-83
2021/09/06 04:55:26;;;;;;;;;17.00;17.00;;;;;;;;5062578;28;8899;-80
2021/09/06 04:57:53;;;;;;;;;22.00;19.75;;;;;;;;5061838;28;8839;-85
2021/09/06 05:00:22;;;;;;;;;22.50;21.00;;;;;;;;5062695;28;8876;-84
2021/09/06 05:02:49;;;;;;;;;21.50;19.00;;;;;;;;5063290;28;8879;-85
2021/09/06 05:05:16;;;;;;;;;18.50;17.75;;;;;;;;5073904;28;8877;-81
2021/09/06 05:07:44;;;;;;;;;16.75;16.00;;;;;;;;5070949;28;8883;-84
2021/09/06 05:10:13;;;;;;;;;20.25;15.25;;;;;;;;5072802;28;8883;-80
2021/09/06 05:12:41;;;;;;;;;14.50;13.75;;;;;;;;5071426;28;8873;-83
2021/09/06 05:15:09;;;;;;;;;17.00;17.00;;;;;;;;5066754;28;8883;-81
2021/09/06 05:17:36;;;;;;;;;16.00;16.00;;;;;;;;5063316;28;8992;-81
2021/09/06 05:20:04;;;;;;;;;17.75;17.75;;;;;;;;5062736;28;8886;-77
2021/09/06 05:22:32;;;;;;;;;19.25;17.25;;;;;;;;5082015;28;8976;-80
2021/09/06 05:24:59;;;;;;;;;18.50;18.50;;;;;;;;5069446;28;8896;-80
2021/09/06 05:27:28;;;;;;;;;16.00;14.50;;;;;;;;5057373;28;9780;-76
2021/09/06 05:29:55;;;;;;;;;18.75;16.00;;;;;;;;5060070;28;8869;-76
2021/09/06 05:32:22;;;;;;;;;17.50;17.25;;;;;;;;5060576;28;8816;-73
2021/09/06 05:34:49;;;;;;;;;21.50;20.50;;;;;;;;5066034;28;8980;-74
2021/09/06 05:37:16;;;;;;;;;17.00;17.00;;;;;;;;5068491;28;9633;-74
2021/09/06 05:39:44;;;;;;;;;20.25;20.25;;;;;;;;5078175;28;8896;-77
2021/09/06 05:42:11;;;;;;;;;20.00;17.50;;;;;;;;5074574;28;8879;-74
2021/09/06 05:44:40;;;;;;;;;22.50;20.75;;;;;;;;5070627;28;8910;-73
2021/09/06 05:47:07;;;;;;;;;16.75;16.25;;;;;;;;5079929;28;8860;-76
2021/09/06 05:49:35;;;;;;;;;21.50;19.00;;;;;;;;5071271;28;8904;-76
2021/09/06 05:52:02;;;;;;;;;16.25;14.50;;;;;;;;5080448;28;8885;-74
2021/09/06 05:54:29;;;;;;;;;20.75;20.75;;;;;;;;5084061;28;9704;-72
2021/09/06 05:56:56;;;;;;;;;16.50;16.50;;;;;;;;5076977;28;8914;-73
2021/09/06 05:59:23;;;;;;;;;22.75;21.25;;;;;;;;5077875;28;8869;-74
2021/09/06 06:01:52;;;;;;;;;25.25;24.75;;;;;;;;5083802;28;8920;-72
2021/09/06 06:04:19;;;;;;;;;23.75;23.75;;;;;;;;5068891;28;8864;-73
2021/09/06 06:06:47;;;;;;;;;25.00;24.25;;;;;;;;5072493;28;8882;-73
2021/09/06 06:09:14;;;;;;;;;29.00;27.00;;;;;;;;5069488;28;8899;-71
2021/09/06 06:11:41;;;;;;;;;25.75;24.00;;;;;;;;5070503;28;8876;-73
2021/09/06 06:14:09;;;;;;;;;20.25;20.25;;;;;;;;5061688;28;8871;-73
2021/09/06 06:16:36;;;;;;;;;19.00;18.00;;;;;;;;5067653;28;8974;-75
2021/09/06 06:19:05;;;;;;;;;29.25;29.00;;;;;;;;5078793;28;8852;-74
2021/09/06 06:21:33;;;;;;;;;26.75;24.25;;;;;;;;5077177;28;8891;-74
2021/09/06 06:24:01;;;;;;;;;27.75;25.50;;;;;;;;5073075;28;8877;-73
2021/09/06 06:26:29;;;;;;;;;28.75;27.50;;;;;;;;5069955;28;8916;-74
2021/09/06 06:28:58;;;;;;;;;30.75;30.75;;;;;;;;5069370;28;8980;-75
2021/09/06 06:31:26;;;;;;;;;21.75;21.75;;;;;;;;5048899;28;8807;-73
2021/09/06 06:33:53;;;;;;;;;28.50;27.00;;;;;;;;5082353;28;8972;-75
2021/09/06 06:36:22;;;;;;;;;30.50;30.50;;;;;;;;5081211;28;8865;-74
2021/09/06 06:38:50;;;;;;;;;26.75;26.75;;;;;;;;5085080;28;8858;-73
2021/09/06 06:41:17;;;;;;;;;28.75;28.75;;;;;;;;5084583;28;8889;-73
2021/09/06 06:43:44;;;;;;;;;30.25;27.50;;;;;;;;5070225;28;8884;-74
2021/09/06 06:46:12;;;;;;;;;25.25;24.75;;;;;;;;5062136;28;8876;-73
2021/09/06 06:48:40;;;;;;;;;31.00;29.75;;;;;;;;5072713;28;8996;-73
2021/09/06 06:51:07;;;;;;;;;27.50;24.75;;;;;;;;5086307;28;9414;-74
2021/09/06 06:53:37;;;;;;;;;31.75;26.00;;;;;;;;5085370;28;8914;-72
2021/09/06 06:56:04;;;;;;;;;28.50;27.25;;;;;;;;5082552;28;8972;-73
2021/09/06 06:58:32;;;;;;;;;30.25;27.50;;;;;;;;5062214;28;8846;-74
2021/09/06 07:00:59;;;;;;;;;28.75;28.75;;;;;;;;5049487;28;8825;-73
2021/09/06 07:03:26;;;;;;;;;27.75;25.25;;;;;;;;5080088;28;8903;-73
2021/09/06 07:05:53;;;;;;;;;26.75;26.75;;;;;;;;5084058;28;8899;-74
2021/09/06 07:08:20;;;;;;;;;29.50;28.25;;;;;;;;5060938;28;8877;-73
2021/09/06 07:10:49;;;;;;;;;28.50;27.00;;;;;;;;5085164;28;8897;-74
2021/09/06 07:13:17;;;;;;;;;28.25;28.25;;;;;;;;5072912;28;8861;-74
2021/09/06 07:15:44;;;;;;;;;29.00;25.00;;;;;;;;5065916;28;8856;-74
2021/09/06 07:18:11;;;;;;;;;23.00;23.00;;;;;;;;5064237;28;8875;-74
2021/09/06 07:20:38;;;;;;;;;22.75;22.25;;;;;;;;5065789;28;8884;-75
2021/09/06 07:23:06;;;;;;;;;27.50;23.75;;;;;;;;5073377;28;10166;-74
2021/09/06 07:25:33;;;;;;;;;20.75;20.00;;;;;;;;5074381;28;8859;-73
2021/09/06 07:28:02;;;;;;;;;24.75;24.75;;;;;;;;5073552;28;8925;-73
2021/09/06 07:30:29;;;;;;;;;23.00;23.00;;;;;;;;5074764;28;8805;-74
2021/09/06 07:32:57;;;;;;;;;30.50;28.50;;;;;;;;5057638;28;8898;-73
2021/09/06 07:35:25;;;;;;;;;27.75;26.00;;;;;;;;5065085;28;8922;-73
2021/09/06 07:37:52;;;;;;;;;27.25;27.25;;;;;;;;5075300;28;8882;-74
2021/09/06 07:40:20;;;;;;;;;27.50;27.50;;;;;;;;5071200;28;8910;-74
2021/09/06 07:42:48;;;;;;;;;26.00;25.75;;;;;;;;5067366;28;8899;-74
2021/09/06 07:45:16;;;;;;;;;27.75;24.50;;;;;;;;5069014;28;8865;-73
2021/09/06 07:47:44;;;;;;;;;27.25;23.75;;;;;;;;5074625;28;8887;-73
2021/09/06 07:50:14;;;;;;;;;24.25;23.50;;;;;;;;5067804;28;8913;-74
2021/09/06 07:52:41;;;;;;;;;20.60;19.60;;;;;;;;5063530;28;8878;-74
2021/09/06 07:55:10;;;;;;;;;23.80;23.20;;;;;;;;5077527;28;8909;-74
2021/09/06 07:57:37;;;;;;;;;26.40;26.40;;;;;;;;5069336;28;9002;-75
2021/09/06 08:00:06;;;;;;;;;19.40;18.60;;;;;;;;5064760;28;8875;-73
2021/09/06 08:02:41;;;;;;;;;22.00;22.00;;;;;;;;5074149;28;8903;-75
2021/09/06 08:05:10;;;;;;;;;18.80;18.80;;;;;;;;5084169;28;8885;-74
2021/09/06 08:07:37;;;;;;;;;26.20;24.00;;;;;;;;5038628;28;8880;-75
2021/09/06 08:10:06;;;;;;;;;21.80;21.80;;;;;;;;5070644;28;8885;-74
2021/09/06 08:12:33;;;;;;;;;26.00;24.00;;;;;;;;5067050;28;8856;-74
2021/09/06 08:15:00;;;;;;;;;24.60;24.60;;;;;;;;5058351;28;8894;-74
2021/09/06 08:17:27;;;;;;;;;29.20;27.20;;;;;;;;5072812;28;8865;-74
2021/09/06 08:19:56;;;;;;;;;22.40;19.60;;;;;;;;5079488;28;8991;-74
2021/09/06 08:22:23;;;;;;;;;19.60;19.60;;;;;;;;5063636;28;8868;-75
2021/09/06 08:24:50;;;;;;;;;22.80;21.60;;;;;;;;5071230;28;8848;-74
2021/09/06 08:27:17;;;;;;;;;23.40;22.00;;;;;;;;5062565;28;8929;-75
2021/09/06 08:29:45;;;;;;;;;20.40;20.40;;;;;;;;5076650;28;8858;-75
2021/09/06 08:32:12;;;;;;;;;18.00;18.00;;;;;;;;5077578;28;8810;-75
2021/09/06 08:34:39;;;;;;;;;21.80;20.80;;;;;;;;5065437;28;8907;-75
2021/09/06 08:37:08;;;;;;;;;25.20;22.40;;;;;;;;5047901;28;8866;-74
2021/09/06 08:39:37;;;;;;;;;20.00;17.80;;;;;;;;5065963;28;8864;-75
2021/09/06 08:42:05;;;;;;;;;19.20;19.20;;;;;;;;5075215;28;8876;-75
2021/09/06 08:44:32;;;;;;;;;19.20;19.20;;;;;;;;5054839;28;8880;-75
2021/09/06 08:46:59;;;;;;;;;20.00;18.20;;;;;;;;5069947;28;8864;-76
2021/09/06 08:49:27;;;;;;;;;18.80;18.80;;;;;;;;5073233;28;9630;-75
2021/09/06 08:51:55;;;;;;;;;16.60;16.60;;;;;;;;5072207;28;8872;-75
2021/09/06 08:54:23;;;;;;;;;18.40;18.40;;;;;;;;5072603;28;8877;-75
2021/09/06 08:56:51;;;;;;;;;18.20;17.00;;;;;;;;5074326;28;8873;-74
2021/09/06 08:59:20;;;;;;;;;19.40;19.40;;;;;;;;5071117;28;8873;-75
2021/09/06 09:01:51;;;;;;;;;20.40;20.40;;;;;;;;5061764;28;8829;-76
2021/09/06 09:04:19;;;;;;;;;23.20;22.20;;;;;;;;5049023;28;8891;-74
2021/09/06 09:06:50;;;;;;;;;22.80;22.80;;;;;;;;5061994;28;9709;-76
2021/09/06 09:09:27;;;;;;;;;24.60;21.80;;;;;;;;5053724;28;8945;-75
2021/09/06 09:12:05;;;;;;;;;21.40;21.40;;;;;;;;5048233;28;8867;-75
2021/09/06 09:14:32;;;;;;;;;27.60;27.60;;;;;;;;5072963;28;8864;-75
2021/09/06 09:17:00;;;;;;;;;23.20;22.20;;;;;;;;5066522;28;8868;-75
2021/09/06 09:19:28;;;;;;;;;20.00;18.80;;;;;;;;5068356;28;8915;-75
2021/09/06 09:21:56;;;;;;;;;23.00;21.00;;;;;;;;5088377;28;8873;-76
2021/09/06 09:24:25;;;;;;;;;20.60;20.00;;;;;;;;5086944;28;8915;-76
2021/09/06 09:26:55;;;;;;;;;19.60;16.00;;;;;;;;5083471;28;9752;-75
2021/09/06 09:29:22;;;;;;;;;19.20;17.20;;;;;;;;5086742;28;8905;-75
2021/09/06 09:31:51;;;;;;;;;15.60;15.20;;;;;;;;5087166;28;9354;-76
2021/09/06 09:34:18;;;;;;;;;19.00;18.60;;;;;;;;5087714;28;8869;-75
2021/09/06 09:36:46;;;;;;;;;17.40;17.40;;;;;;;;5083580;28;8881;-75
2021/09/06 09:39:16;;;;;;;;;18.00;18.00;;;;;;;;5087856;28;8992;-75
2021/09/06 09:41:46;;;;;;;;;16.80;16.80;;;;;;;;5083264;28;8893;-75
2021/09/06 09:44:20;;;;;;;;;15.60;15.40;;;;;;;;5068146;28;9006;-75
2021/09/06 09:46:55;;;;;;;;;16.80;16.60;;;;;;;;5049250;28;8875;-75
2021/09/06 09:49:23;;;;;;;;;16.00;15.60;;;;;;;;5067101;28;8894;-75
2021/09/06 09:51:50;;;;;;;;;15.60;13.60;;;;;;;;5066592;28;8872;-75
2021/09/06 09:54:18;;;;;;;;;16.20;16.20;;;;;;;;5075075;28;8988;-75
2021/09/06 09:56:48;;;;;;;;;16.80;16.40;;;;;;;;5079289;28;8980;-75
2021/09/06 09:59:17;;;;;;;;;18.00;16.60;;;;;;;;5065288;28;8868;-75
2021/09/06 10:01:47;;;;;;;;;13.00;13.00;;;;;;;;5066228;28;8929;-75
2021/09/06 10:04:15;;;;;;;;;13.20;13.20;;;;;;;;5066134;28;8876;-75
2021/09/06 10:06:43;;;;;;;;;13.60;13.60;;;;;;;;5066399;28;9016;-74
2021/09/06 10:09:14;;;;;;;;;15.60;14.00;;;;;;;;5066471;28;8864;-74
2021/09/06 10:11:44;;;;;;;;;14.00;12.60;;;;;;;;5083440;28;8881;-75
2021/09/06 10:14:19;;;;;;;;;14.20;14.20;;;;;;;;5081810;28;8859;-74
2021/09/06 10:16:49;;;;;;;;;13.40;12.80;;;;;;;;5065713;28;9540;-75
2021/09/06 10:19:17;;;;;;;;;12.20;12.20;;;;;;;;5067017;28;8910;-75
2021/09/06 10:21:49;;;;;;;;;13.00;13.00;;;;;;;;5065588;28;8902;-75
2021/09/06 10:24:18;;;;;;;;;13.40;13.40;;;;;;;;5065676;28;8884;-75
2021/09/06 10:26:46;;;;;;;;;16.20;16.20;;;;;;;;5066377;28;8868;-74
2021/09/06 10:29:17;;;;;;;;;14.60;13.40;;;;;;;;5080972;28;8958;-75
2021/09/06 10:31:44;;;;;;;;;14.80;14.80;;;;;;;;5086314;28;8814;-75
2021/09/06 10:34:28;;;;;;;;;11.80;11.80;;;;;;;;5085518;28;8877;-75
2021/09/06 10:37:01;;;;;;;;;12.60;12.60;;;;;;;;5079707;28;8885;-75
2021/09/06 10:39:28;;;;;;;;;17.20;16.40;;;;;;;;5085897;28;8946;-75
2021/09/06 10:42:05;;;;;;;;;20.80;16.40;;;;;;;;5074141;28;8888;-75
2021/09/06 10:44:38;;;;;;;;;15.00;15.00;;;;;;;;5063595;28;8885;-74
2021/09/06 10:47:13;;;;;;;;;14.20;14.20;;;;;;;;5084472;28;8897;-75
2021/09/06 10:49:42;;;;;;;;;14.60;13.80;;;;;;;;5075971;28;8871;-75
2021/09/06 10:52:10;;;;;;;;;13.80;13.80;;;;;;;;5065854;28;8918;-74
2021/09/06 10:54:39;;;;;;;;;12.80;12.80;;;;;;;;5066025;28;8864;-75
2021/09/06 10:57:07;;;;;;;;;12.80;12.80;;;;;;;;5064771;28;8857;-74
2021/09/06 10:59:37;;;;;;;;;14.40;14.40;;;;;;;;5085066;28;8877;-75
2021/09/06 11:02:08;;;;;;;;;15.80;15.80;;;;;;;;5070679;28;8864;-75
2021/09/06 11:04:36;;;;;;;;;13.40;12.80;;;;;;;;5064787;28;8894;-75
2021/09/06 11:07:06;;;;;;;;;13.60;13.60;;;;;;;;5066079;28;8860;-75
2021/09/06 11:09:34;;;;;;;;;15.20;15.20;;;;;;;;5065149;28;8998;-75
2021/09/06 11:12:06;;;;;;;;;14.80;13.20;;;;;;;;5073000;28;8879;-74
2021/09/06 11:14:40;;;;;;;;;13.00;13.00;;;;;;;;5076815;28;8856;-75
2021/09/06 11:17:21;;;;;;;;;15.20;15.20;;;;;;;;5064683;28;8969;-74
2021/09/06 11:19:50;;;;;;;;;14.80;14.80;;;;;;;;5059906;28;9020;-75
2021/09/06 11:22:19;;;;;;;;;12.80;12.00;;;;;;;;5064538;28;8896;-74
2021/09/06 11:24:46;;;;;;;;;13.80;13.00;;;;;;;;5065399;28;8871;-74
2021/09/06 11:27:25;;;;;;;;;12.60;12.60;;;;;;;;5065074;28;9015;-75
2021/09/06 11:29:54;;;;;;;;;14.00;14.00;;;;;;;;5064486;28;8864;-75
2021/09/06 11:32:21;;;;;;;;;16.00;16.00;;;;;;;;5052125;28;8811;-75
2021/09/06 11:34:49;;;;;;;;;16.80;16.40;;;;;;;;5063688;28;8990;-75
2021/09/06 11:37:18;;;;;;;;;14.60;14.60;;;;;;;;5079501;28;8869;-75
2021/09/06 11:39:45;;;;;;;;;13.40;13.40;;;;;;;;5084535;28;8967;-75
2021/09/06 11:42:13;;;;;;;;;13.00;11.80;;;;;;;;5070596;28;8958;-75
2021/09/06 11:44:41;;;;;;;;;14.60;13.80;;;;;;;;5064531;28;8848;-75
2021/09/06 11:47:10;;;;;;;;;12.60;11.60;;;;;;;;5064216;28;8880;-75
2021/09/06 11:49:37;;;;;;;;;10.40;10.40;;;;;;;;5065056;28;9002;-75
2021/09/06 11:52:09;;;;;;;;;11.40;10.20;;;;;;;;5066638;28;8858;-74
2021/09/06 11:54:44;;;;;;;;;14.40;13.00;;;;;;;;5085507;28;9631;-74
2021/09/06 11:57:16;;;;;;;;;14.40;14.40;;;;;;;;5054127;28;8883;-74
2021/09/06 11:59:51;;;;;;;;;16.80;14.80;;;;;;;;5047400;28;8888;-75
2021/09/06 12:02:20;;;;;;;;;10.00;10.00;;;;;;;;5051358;28;8824;-75
2021/09/06 12:04:48;;;;;;;;;14.40;14.40;;;;;;;;5063688;28;8880;-76
2021/09/06 12:07:18;;;;;;;;;13.40;13.40;;;;;;;;5064616;28;8883;-75
2021/09/06 12:09:45;;;;;;;;;15.20;15.20;;;;;;;;5063499;28;8876;-75
2021/09/06 12:12:20;;;;;;;;;13.20;13.20;;;;;;;;5075185;28;9779;-76
2021/09/06 12:14:49;;;;;;;;;15.80;12.40;;;;;;;;5039485;28;8857;-75
2021/09/06 12:17:16;;;;;;;;;11.60;10.60;;;;;;;;5084027;28;8885;-75
2021/09/06 12:19:47;;;;;;;;;13.00;13.00;;;;;;;;5084981;28;8872;-74
2021/09/06 12:22:16;;;;;;;;;11.80;10.20;;;;;;;;5083773;28;8869;-74
2021/09/06 12:24:44;;;;;;;;;10.20;10.20;;;;;;;;5084959;28;8887;-75
2021/09/06 12:27:13;;;;;;;;;13.80;13.80;;;;;;;;5072224;28;8864;-75
2021/09/06 12:29:41;;;;;;;;;12.00;12.00;;;;;;;;5083812;28;9000;-74
2021/09/06 12:32:09;;;;;;;;;16.20;12.60;;;;;;;;5083369;28;8832;-74
2021/09/06 12:34:37;;;;;;;;;12.20;12.20;;;;;;;;5084138;28;8943;-74
2021/09/06 12:37:06;;;;;;;;;13.60;11.00;;;;;;;;5083980;28;8865;-75
2021/09/06 12:39:36;;;;;;;;;12.20;11.20;;;;;;;;5083487;28;9853;-74
2021/09/06 12:42:04;;;;;;;;;11.40;11.40;;;;;;;;5059572;28;8987;-74
2021/09/06 12:44:31;;;;;;;;;14.40;12.80;;;;;;;;5070998;28;8885;-75
2021/09/06 12:46:59;;;;;;;;;11.40;11.40;;;;;;;;5083802;28;8881;-75
2021/09/06 12:49:27;;;;;;;;;14.80;13.20;;;;;;;;5083667;28;8939;-74
2021/09/06 12:51:58;;;;;;;;;8.80;8.80;;;;;;;;5068513;28;8867;-75
2021/09/06 12:54:27;;;;;;;;;8.00;8.00;;;;;;;;5064188;28;8891;-74
2021/09/06 12:56:54;;;;;;;;;9.80;9.00;;;;;;;;5058252;28;8903;-74
2021/09/06 12:59:22;;;;;;;;;10.20;8.00;;;;;;;;5081646;28;8861;-75
2021/09/06 13:01:51;;;;;;;;;11.40;11.40;;;;;;;;5061848;28;8804;-75
2021/09/06 13:04:18;;;;;;;;;12.60;10.80;;;;;;;;5064058;28;8911;-74
2021/09/06 13:06:46;;;;;;;;;10.00;10.00;;;;;;;;5063138;28;8998;-74
2021/09/06 13:09:13;;;;;;;;;9.00;9.00;;;;;;;;5063608;28;8900;-74
2021/09/06 13:11:42;;;;;;;;;11.60;11.60;;;;;;;;5063580;28;8848;-74
2021/09/06 13:14:10;;;;;;;;;10.00;10.00;;;;;;;;5068827;28;9002;-74
2021/09/06 13:16:37;;;;;;;;;8.60;8.60;;;;;;;;5046002;28;9001;-74
2021/09/06 13:19:05;;;;;;;;;12.60;12.60;;;;;;;;5074051;28;8877;-74
2021/09/06 13:21:32;;;;;;;;;11.20;9.40;;;;;;;;5083687;28;8886;-74
2021/09/06 13:24:00;;;;;;;;;10.20;10.20;;;;;;;;5083124;28;8875;-74
2021/09/06 13:26:27;;;;;;;;;9.00;9.00;;;;;;;;5083030;28;8869;-74
2021/09/06 13:28:56;;;;;;;;;8.60;8.60;;;;;;;;5083853;28;9696;-74
2021/09/06 13:31:24;;;;;;;;;9.80;9.20;;;;;;;;5082059;28;8837;-74
2021/09/06 13:33:53;;;;;;;;;9.60;9.60;;;;;;;;5077206;28;8852;-73
2021/09/06 13:36:21;;;;;;;;;13.40;12.00;;;;;;;;5031501;28;8876;-74
2021/09/06 13:38:48;;;;;;;;;9.60;9.60;;;;;;;;5063653;28;8900;-74
2021/09/06 13:41:15;;;;;;;;;8.80;8.20;;;;;;;;5062556;28;8876;-74
2021/09/06 13:43:43;;;;;;;;;9.80;9.80;;;;;;;;5077348;28;8881;-74
2021/09/06 13:46:12;;;;;;;;;13.60;13.60;;;;;;;;5084182;28;8903;-73
2021/09/06 13:48:39;;;;;;;;;12.40;11.00;;;;;;;;5084196;28;9013;-75
2021/09/06 13:51:07;;;;;;;;;10.40;10.40;;;;;;;;5074702;28;8951;-75
2021/09/06 13:53:34;;;;;;;;;11.20;11.00;;;;;;;;5077631;28;8881;-75
2021/09/06 13:56:01;;;;;;;;;10.60;10.60;;;;;;;;5081193;28;8915;-74
2021/09/06 13:58:30;;;;;;;;;11.60;10.20;;;;;;;;5062946;28;8898;-75
2021/09/06 14:00:57;;;;;;;;;11.80;11.80;;;;;;;;5066502;28;8815;-74
2021/09/06 14:03:25;;;;;;;;;13.00;11.40;;;;;;;;5066293;28;8852;-74
2021/09/06 14:05:53;;;;;;;;;13.00;13.00;;;;;;;;5066320;28;8863;-74
2021/09/06 14:08:20;;;;;;;;;11.00;11.00;;;;;;;;5070266;28;8983;-74
2021/09/06 14:10:47;;;;;;;;;9.40;9.40;;;;;;;;5085800;28;9728;-75
2021/09/06 14:13:14;;;;;;;;;12.40;11.00;;;;;;;;5077169;28;8871;-74
2021/09/06 14:15:43;;;;;;;;;7.40;7.40;;;;;;;;5057947;28;8876;-74
2021/09/06 14:18:10;;;;;;;;;9.80;9.80;;;;;;;;5064433;28;8876;-74
2021/09/06 14:20:40;;;;;;;;;8.80;8.80;;;;;;;;5065434;28;8900;-74
2021/09/06 14:23:07;;;;;;;;;11.20;11.00;;;;;;;;5066478;28;8872;-74
2021/09/06 14:25:35;;;;;;;;;13.20;11.20;;;;;;;;5078465;28;8860;-74
2021/09/06 14:28:03;;;;;;;;;12.20;12.20;;;;;;;;5086005;28;8899;-73
2021/09/06 14:30:30;;;;;;;;;11.40;11.40;;;;;;;;5086427;28;8900;-74
2021/09/06 14:32:58;;;;;;;;;12.00;12.00;;;;;;;;5085984;28;8873;-74
2021/09/06 14:35:25;;;;;;;;;11.40;11.40;;;;;;;;5086503;28;9005;-74